Time;durP1;ratioP1;P1;durP2;ratioP2;P2;SDS_P1;SDS_P2;PMS_P1;PMS_P2;Temp;Humidity;BMP_temperature;BMP_pressure;BME280_temperature;BME280_humidity;BME280_pressure;Samples;Min_cycle;Max_cycle;Signal;HPM_P1;HPM_P2
2022/10/14 03:02:37;;;;;;;;;;;13.40;99.90;;;;;;5223725;23;20367;-68
2022/10/14 03:05:05;;;;;;;;;;;13.40;99.90;;;;;;5004823;28;19934;-68
2022/10/14 03:07:31;;;;;;;;;;;13.40;99.90;;;;;;5012890;28;19925;-68
2022/10/14 03:10:02;;;;;;;;;;;13.40;99.90;;;;;;4999895;28;20380;-68
2022/10/14 03:12:32;;;;;;;;;;;13.40;99.90;;;;;;5010168;28;19925;-67
2022/10/14 03:14:59;;;;;;;;;;;13.40;99.90;;;;;;5011013;28;20003;-68
2022/10/14 03:17:26;;;;;;;;;;;13.40;99.90;;;;;;5006845;28;20033;-68
2022/10/14 03:19:59;;;;;;;;;;;13.50;99.90;;;;;;5000805;28;19929;-68
2022/10/14 03:22:26;;;;;;;;;;;13.50;99.90;;;;;;5011715;28;20028;-68
2022/10/14 03:24:54;;;;;;;;;;;13.40;99.90;;;;;;5024398;28;19932;-69
2022/10/14 03:27:39;;;;;;;;;;;13.40;99.90;;;;;;5001771;28;20402;-67
2022/10/14 03:30:11;;;;;;;;;;;13.40;99.90;;;;;;4993050;28;19929;-68
2022/10/14 03:32:47;;;;;;;;;;;13.50;99.90;;;;;;5008286;28;19965;-68
2022/10/14 03:35:33;;;;;;;;;;;13.40;99.90;;;;;;5004969;28;19932;-68
2022/10/14 03:38:02;;;;;;;;;;;13.40;99.90;;;;;;5004379;28;19961;-68
2022/10/14 03:40:32;;;;;;;;;;;13.40;99.90;;;;;;5008742;28;19964;-68
2022/10/14 03:43:01;;;;;;;;;;;13.40;99.90;;;;;;5008799;28;19929;-67
2022/10/14 03:45:34;;;;;;;;;;;13.40;99.90;;;;;;5009013;28;20376;-67
2022/10/14 03:48:02;;;;;;;;;;;13.40;99.90;;;;;;5005912;28;20011;-69
2022/10/14 03:50:29;;;;;;;;;;;13.40;99.90;;;;;;5004098;28;20033;-67
2022/10/14 03:52:57;;;;;;;;;;;13.40;99.90;;;;;;5009899;28;19925;-67
2022/10/14 03:55:31;;;;;;;;;;;13.40;99.90;;;;;;5007000;28;19930;-67
2022/10/14 03:57:58;;;;;;;;;;;13.40;99.90;;;;;;5000881;28;19925;-68
2022/10/14 04:00:26;;;;;;;;;;;13.40;99.90;;;;;;5000534;28;19964;-68
2022/10/14 04:03:07;;;;;;;;;;;13.40;99.90;;;;;;5000072;28;19925;-67
2022/10/14 04:05:38;;;;;;;;;;;13.40;99.90;;;;;;5005588;28;19932;-68
2022/10/14 04:08:12;;;;;;;;;;;13.40;99.90;;;;;;5004455;28;20339;-68
2022/10/14 04:10:43;;;;;;;;;;;13.40;99.90;;;;;;5002053;28;19930;-68
2022/10/14 04:13:13;;;;;;;;;;;13.40;99.90;;;;;;5006987;28;19925;-68
2022/10/14 04:15:40;;;;;;;;;;;13.40;99.90;;;;;;5001216;28;20017;-68
2022/10/14 04:18:15;;;;;;;;;;;13.40;99.90;;;;;;5004633;28;19926;-68
2022/10/14 04:20:44;;;;;;;;;;;13.30;99.90;;;;;;5004851;28;19979;-69
2022/10/14 04:23:13;;;;;;;;;;;13.40;99.90;;;;;;4996899;28;19930;-68
2022/10/14 04:25:42;;;;;;;;;;;13.40;99.90;;;;;;5006751;28;20312;-68
2022/10/14 04:28:08;;;;;;;;;;;13.40;99.90;;;;;;5004555;28;19926;-67
2022/10/14 04:30:55;;;;;;;;;;;13.40;99.90;;;;;;4999364;28;19925;-68
2022/10/14 04:33:27;;;;;;;;;;;13.30;99.90;;;;;;5004622;28;19925;-67
2022/10/14 04:35:57;;;;;;;;;;;13.30;99.90;;;;;;5004506;28;19932;-68
2022/10/14 04:38:29;;;;;;;;;;;13.20;99.90;;;;;;5003161;28;19925;-66
2022/10/14 04:41:02;;;;;;;;;;;13.30;99.90;;;;;;5003315;28;19925;-66
2022/10/14 04:43:30;;;;;;;;;;;13.30;99.90;;;;;;4999680;28;19945;-67
2022/10/14 04:46:07;;;;;;;;;;;13.30;99.90;;;;;;5007667;28;20024;-67
2022/10/14 04:48:34;;;;;;;;;;;13.30;99.90;;;;;;5007676;28;19926;-69
2022/10/14 04:51:03;;;;;;;;;;;13.30;99.90;;;;;;4998198;28;19932;-68
2022/10/14 04:53:44;;;;;;;;;;;13.20;99.90;;;;;;5001639;28;19926;-66
2022/10/14 04:56:38;;;;;;;;;;;13.20;99.90;;;;;;5006440;28;19929;-69
2022/10/14 04:59:05;;;;;;;;;;;13.20;99.90;;;;;;4998372;28;20316;-68
2022/10/14 05:01:55;;;;;;;;;;;13.20;99.90;;;;;;4991307;28;20028;-66
2022/10/14 05:04:25;;;;;;;;;;;13.20;99.90;;;;;;4999562;28;19980;-67
2022/10/14 05:06:52;;;;;;;;;;;13.20;99.90;;;;;;5004036;28;19929;-68
2022/10/14 05:09:21;;;;;;;;;;;13.20;99.90;;;;;;4993755;28;20393;-67
2022/10/14 05:11:49;;;;;;;;;;;13.30;99.90;;;;;;5008811;28;19926;-67
2022/10/14 05:14:21;;;;;;;;;;;13.30;99.90;;;;;;5002922;28;19930;-69
2022/10/14 05:16:51;;;;;;;;;;;13.20;99.90;;;;;;5007512;28;19929;-69
2022/10/14 05:19:26;;;;;;;;;;;13.20;99.90;;;;;;5001566;28;19933;-67
2022/10/14 05:21:54;;;;;;;;;;;13.20;99.90;;;;;;5007571;28;19988;-67
2022/10/14 05:24:28;;;;;;;;;;;13.20;99.90;;;;;;5005453;28;19961;-70
2022/10/14 05:26:55;;;;;;;;;;;13.20;99.90;;;;;;5006142;28;19926;-68
2022/10/14 05:29:22;;;;;;;;;;;13.30;99.90;;;;;;4997189;28;19933;-67
2022/10/14 05:31:51;;;;;;;;;;;13.30;99.90;;;;;;4994119;28;19926;-68
2022/10/14 05:34:37;;;;;;;;;;;13.30;99.90;;;;;;5005641;28;20074;-68
2022/10/14 05:37:08;;;;;;;;;;;13.30;99.90;;;;;;5005273;28;19951;-68
2022/10/14 05:39:45;;;;;;;;;;;13.30;99.90;;;;;;5000467;28;19925;-68
2022/10/14 05:42:13;;;;;;;;;;;13.20;99.90;;;;;;4995191;28;19939;-67
2022/10/14 05:44:42;;;;;;;;;;;13.20;99.90;;;;;;5003984;28;19968;-68
2022/10/14 05:47:11;;;;;;;;;;;13.20;99.90;;;;;;4998940;28;19925;-68
2022/10/14 05:49:38;;;;;;;;;;;13.30;99.90;;;;;;4997000;28;19925;-68
2022/10/14 05:52:06;;;;;;;;;;;13.30;99.90;;;;;;4991869;28;19930;-68
2022/10/14 05:54:33;;;;;;;;;;;13.30;99.90;;;;;;4999131;28;20024;-68
2022/10/14 05:57:04;;;;;;;;;;;13.30;99.90;;;;;;4999841;28;19965;-68
2022/10/14 05:59:33;;;;;;;;;;;13.30;99.90;;;;;;5010204;28;19933;-69
2022/10/14 06:02:00;;;;;;;;;;;13.30;99.90;;;;;;4998431;28;20392;-69
2022/10/14 06:04:27;;;;;;;;;;;13.30;99.90;;;;;;5001602;28;20312;-71
2022/10/14 06:06:55;;;;;;;;;;;13.30;99.90;;;;;;5006915;28;20005;-70
2022/10/14 06:09:22;;;;;;;;;;;13.30;99.90;;;;;;5002398;28;19932;-69
2022/10/14 06:11:48;;;;;;;;;;;13.40;99.90;;;;;;5002277;28;20269;-70
2022/10/14 06:14:17;;;;;;;;;;;13.40;99.90;;;;;;5000203;28;19925;-70
2022/10/14 06:16:45;;;;;;;;;;;13.40;99.90;;;;;;5003382;28;19926;-70
2022/10/14 06:19:13;;;;;;;;;;;13.40;99.90;;;;;;4998561;28;19937;-70
2022/10/14 06:21:39;;;;;;;;;;;13.40;99.90;;;;;;5004885;28;20020;-71
2022/10/14 06:24:07;;;;;;;;;;;13.40;99.90;;;;;;5006805;28;19925;-69
2022/10/14 06:26:33;;;;;;;;;;;13.40;99.90;;;;;;5005720;28;20400;-70
2022/10/14 06:29:00;;;;;;;;;;;13.40;99.90;;;;;;5006916;28;19932;-70
2022/10/14 06:31:28;;;;;;;;;;;13.50;99.90;;;;;;5006599;28;19926;-70
2022/10/14 06:33:55;;;;;;;;;;;13.50;99.90;;;;;;5009419;28;20351;-68
2022/10/14 06:36:22;;;;;;;;;;;13.50;99.90;;;;;;5008906;28;19926;-69
2022/10/14 06:38:49;;;;;;;;;;;13.50;99.90;;;;;;5007862;28;19972;-68
2022/10/14 06:41:15;;;;;;;;;;;13.50;99.90;;;;;;5001142;28;19932;-69
2022/10/14 06:43:42;;;;;;;;;;;13.50;99.90;;;;;;5000117;28;19933;-67
2022/10/14 06:46:09;;;;;;;;;;;13.60;99.90;;;;;;4996755;28;19926;-68
2022/10/14 06:48:37;;;;;;;;;;;13.60;99.90;;;;;;5001276;28;19926;-65
2022/10/14 06:51:04;;;;;;;;;;;13.70;99.90;;;;;;5004130;28;19929;-65
2022/10/14 06:53:31;;;;;;;;;;;13.70;99.90;;;;;;5004401;28;19925;-70
2022/10/14 06:55:59;;;;;;;;;;;13.70;99.90;;;;;;5011639;28;19929;-69
2022/10/14 06:58:26;;;;;;;;;;;13.70;99.90;;;;;;5005380;28;20404;-69
2022/10/14 07:00:53;;;;;;;;;;;13.80;99.90;;;;;;5010116;28;20351;-69
2022/10/14 07:03:20;;;;;;;;;;;13.80;99.90;;;;;;5004590;28;19932;-69
2022/10/14 07:05:48;;;;;;;;;;;13.80;99.90;;;;;;5012902;28;19932;-68
2022/10/14 07:08:15;;;;;;;;;;;13.80;99.90;;;;;;5010318;28;19929;-69
2022/10/14 07:10:42;;;;;;;;;;;13.80;99.90;;;;;;5004496;28;19929;-68
2022/10/14 07:13:08;;;;;;;;;;;13.90;99.90;;;;;;5001098;28;19930;-69
2022/10/14 07:15:37;;;;;;;;;;;14.00;99.90;;;;;;4994371;28;19932;-68
2022/10/14 07:18:04;;;;;;;;;;;14.00;99.90;;;;;;5001110;28;19930;-68
2022/10/14 07:20:31;;;;;;;;;;;14.10;99.90;;;;;;5007471;28;19926;-69
2022/10/14 07:22:59;;;;;;;;;;;14.10;99.90;;;;;;4999571;28;19932;-68
2022/10/14 07:25:26;;;;;;;;;;;14.20;99.90;;;;;;5002699;28;19929;-69
2022/10/14 07:27:53;;;;;;;;;;;14.30;99.90;;;;;;4996567;28;19926;-69
2022/10/14 07:30:20;;;;;;;;;;;14.30;99.90;;;;;;5002753;28;19925;-69
2022/10/14 07:32:47;;;;;;;;;;;14.40;99.90;;;;;;4998487;28;19984;-69
2022/10/14 07:35:14;;;;;;;;;;;14.40;99.90;;;;;;5000130;28;19929;-69
2022/10/14 07:37:40;;;;;;;;;;;14.40;99.90;;;;;;5009900;28;19933;-69
2022/10/14 07:40:10;;;;;;;;;;;14.40;99.90;;;;;;5004396;28;19953;-70
2022/10/14 07:42:37;;;;;;;;;;;14.40;99.90;;;;;;5004478;28;19936;-69
2022/10/14 07:45:04;;;;;;;;;;;14.50;99.90;;;;;;5021549;28;19933;-66
2022/10/14 07:47:32;;;;;;;;;;;14.50;99.90;;;;;;5007798;28;19926;-66
2022/10/14 07:49:59;;;;;;;;;;;14.50;99.90;;;;;;5005621;28;20344;-69
2022/10/14 07:52:26;;;;;;;;;;;14.60;99.90;;;;;;5007685;28;19926;-66
2022/10/14 07:54:53;;;;;;;;;;;14.60;99.90;;;;;;4997629;28;19929;-68
2022/10/14 07:57:22;;;;;;;;;;;14.60;99.90;;;;;;5002874;28;19926;-66
2022/10/14 07:59:51;;;;;;;;;;;14.60;99.90;;;;;;5000770;28;19925;-67
2022/10/14 08:02:17;;;;;;;;;;;14.70;99.90;;;;;;5010347;28;19929;-68
2022/10/14 08:04:44;;;;;;;;;;;14.70;99.90;;;;;;5001972;28;19925;-68
2022/10/14 08:07:13;;;;;;;;;;;14.70;99.90;;;;;;4999697;28;19941;-70
2022/10/14 08:09:39;;;;;;;;;;;14.80;99.90;;;;;;5004614;28;20377;-69
2022/10/14 08:12:07;;;;;;;;;;;14.80;99.90;;;;;;5002763;28;19937;-67
2022/10/14 08:14:35;;;;;;;;;;;14.90;99.90;;;;;;5006641;28;19926;-68
2022/10/14 08:17:02;;;;;;;;;;;15.00;99.90;;;;;;5003924;28;19930;-70
2022/10/14 08:19:28;;;;;;;;;;;15.10;99.90;;;;;;4997364;28;19988;-69
2022/10/14 08:21:55;;;;;;;;;;;15.10;99.90;;;;;;5003743;28;19930;-69
2022/10/14 08:24:22;;;;;;;;;;;15.20;99.90;;;;;;5010042;28;19929;-69
2022/10/14 08:26:49;;;;;;;;;;;15.30;99.90;;;;;;5003039;28;19933;-69
2022/10/14 08:29:16;;;;;;;;;;;15.30;99.90;;;;;;5000765;28;19932;-70
2022/10/14 08:31:45;;;;;;;;;;;15.40;99.90;;;;;;4995459;28;19929;-68
2022/10/14 08:34:12;;;;;;;;;;;15.40;99.90;;;;;;5006283;28;20393;-68
2022/10/14 08:36:38;;;;;;;;;;;15.30;99.90;;;;;;4995519;28;19930;-67
2022/10/14 08:39:05;;;;;;;;;;;15.30;99.90;;;;;;5004557;28;19963;-70
2022/10/14 08:41:39;;;;;;;;;;;15.20;99.90;;;;;;5005402;28;19926;-68
2022/10/14 08:44:10;;;;;;;;;;;15.20;99.90;;;;;;4999866;28;19930;-69
2022/10/14 08:46:38;;;;;;;;;;;15.20;99.90;;;;;;5001411;28;20396;-68
2022/10/14 08:49:11;;;;;;;;;;;15.30;99.90;;;;;;4999558;28;19948;-71
2022/10/14 08:51:39;;;;;;;;;;;15.30;99.90;;;;;;4997185;28;20012;-69
2022/10/14 08:54:10;;;;;;;;;;;15.20;99.90;;;;;;5002361;28;19949;-68
2022/10/14 08:56:37;;;;;;;;;;;15.20;99.90;;;;;;5001341;28;19964;-69
2022/10/14 08:59:06;;;;;;;;;;;15.20;99.90;;;;;;4999399;28;19929;-67
2022/10/14 09:01:35;;;;;;;;;;;15.20;99.90;;;;;;4995812;28;19926;-69
2022/10/14 09:04:03;;;;;;;;;;;15.30;99.90;;;;;;4998334;28;19926;-68
2022/10/14 09:06:33;;;;;;;;;;;15.30;99.90;;;;;;5000272;28;20297;-68
2022/10/14 09:09:03;;;;;;;;;;;15.20;99.90;;;;;;5003738;28;20396;-68
2022/10/14 09:11:32;;;;;;;;;;;15.30;99.90;;;;;;5003047;28;19926;-67
2022/10/14 09:14:01;;;;;;;;;;;15.30;99.90;;;;;;4995526;28;20352;-68
2022/10/14 09:16:29;;;;;;;;;;;15.30;99.90;;;;;;4998762;28;19929;-68
2022/10/14 09:18:57;;;;;;;;;;;15.30;99.90;;;;;;4991898;28;19937;-67
2022/10/14 09:21:26;;;;;;;;;;;15.30;99.90;;;;;;5000692;28;19926;-67
2022/10/14 09:23:57;;;;;;;;;;;15.30;99.90;;;;;;4995631;28;20319;-68
2022/10/14 09:26:25;;;;;;;;;;;15.30;99.90;;;;;;5000627;28;19930;-69
2022/10/14 09:28:53;;;;;;;;;;;15.40;99.90;;;;;;5003796;28;19934;-68
2022/10/14 09:31:20;;;;;;;;;;;15.50;99.90;;;;;;5001159;28;19925;-69
2022/10/14 09:33:47;;;;;;;;;;;15.60;99.90;;;;;;5007750;28;19984;-69
2022/10/14 09:36:16;;;;;;;;;;;15.70;99.90;;;;;;4998419;28;19929;-68
2022/10/14 09:38:43;;;;;;;;;;;15.70;99.90;;;;;;5002422;28;19926;-68
2022/10/14 09:41:14;;;;;;;;;;;15.70;99.90;;;;;;5000403;28;19926;-69
2022/10/14 09:44:02;;;;;;;;;;;15.60;99.90;;;;;;5006219;28;19926;-70
2022/10/14 09:46:29;;;;;;;;;;;15.60;99.90;;;;;;4999634;28;19929;-68
2022/10/14 09:48:56;;;;;;;;;;;15.60;99.90;;;;;;5001517;28;20390;-69
2022/10/14 09:51:23;;;;;;;;;;;15.70;99.90;;;;;;5005169;28;19926;-68
2022/10/14 09:53:52;;;;;;;;;;;15.70;99.90;;;;;;5002423;28;19930;-68
2022/10/14 09:56:27;;;;;;;;;;;15.80;99.90;;;;;;4996554;28;19972;-66
2022/10/14 09:58:56;;;;;;;;;;;15.90;99.90;;;;;;5023978;28;19948;-69
2022/10/14 10:01:24;;;;;;;;;;;15.90;99.90;;;;;;5006685;28;20424;-69
2022/10/14 10:03:51;;;;;;;;;;;16.00;99.90;;;;;;5006840;28;19925;-68
2022/10/14 10:06:20;;;;;;;;;;;16.00;99.90;;;;;;5000536;28;19926;-67
2022/10/14 10:08:55;;;;;;;;;;;16.10;99.90;;;;;;5004571;28;19966;-69
2022/10/14 10:11:28;;;;;;;;;;;16.00;99.90;;;;;;5003174;28;19926;-69
2022/10/14 10:13:55;;;;;;;;;;;16.00;99.90;;;;;;5008738;28;19930;-70
2022/10/14 10:16:23;;;;;;;;;;;15.90;99.90;;;;;;5008851;28;19930;-65
2022/10/14 10:18:51;;;;;;;;;;;15.90;99.90;;;;;;4998276;28;19932;-67
2022/10/14 10:21:20;;;;;;;;;;;15.90;99.90;;;;;;4997906;28;19925;-68
2022/10/14 10:23:52;;;;;;;;;;;16.00;99.90;;;;;;4996602;28;19971;-65
2022/10/14 10:26:24;;;;;;;;;;;16.00;99.90;;;;;;4997904;28;19933;-66
2022/10/14 10:28:53;;;;;;;;;;;16.00;99.90;;;;;;5009097;28;19929;-67
2022/10/14 10:31:27;;;;;;;;;;;16.10;99.90;;;;;;5005291;28;19932;-69
2022/10/14 10:33:56;;;;;;;;;;;16.10;99.90;;;;;;5008522;28;19980;-69
2022/10/14 10:36:28;;;;;;;;;;;16.20;99.90;;;;;;5002355;28;19930;-69
2022/10/14 10:38:58;;;;;;;;;;;16.30;99.90;;;;;;5022811;28;19926;-70
2022/10/14 10:41:35;;;;;;;;;;;16.50;99.90;;;;;;5006843;28;19981;-69
2022/10/14 10:44:17;;;;;;;;;;;16.60;99.90;;;;;;5003378;28;20324;-69
2022/10/14 10:46:54;;;;;;;;;;;16.70;99.90;;;;;;5006477;28;19962;-68
2022/10/14 10:49:26;;;;;;;;;;;16.60;99.90;;;;;;5008977;28;19929;-69
2022/10/14 10:51:54;;;;;;;;;;;16.70;99.90;;;;;;5008490;28;19925;-68
2022/10/14 10:54:30;;;;;;;;;;;16.80;99.90;;;;;;5000326;28;20020;-66
2022/10/14 10:56:59;;;;;;;;;;;16.90;99.90;;;;;;5026519;28;20285;-67
2022/10/14 10:59:50;;;;;;;;;;;17.00;99.90;;;;;;4998519;28;19954;-67
2022/10/14 11:02:32;;;;;;;;;;;17.00;99.90;;;;;;5004872;28;19929;-67
2022/10/14 11:05:04;;;;;;;;;;;17.10;99.90;;;;;;5005218;28;19976;-67
2022/10/14 11:13:18;;;;;;;;;;;17.20;99.90;;;;;;5005847;28;19925;-67
2022/10/14 11:15:49;;;;;;;;;;;17.00;99.90;;;;;;5005687;28;19929;-68
2022/10/14 11:18:20;;;;;;;;;;;16.90;99.90;;;;;;4999979;28;20455;-67
2022/10/14 11:20:55;;;;;;;;;;;17.00;99.90;;;;;;5003673;28;19988;-68
2022/10/14 11:23:33;;;;;;;;;;;17.10;99.90;;;;;;5003340;28;19929;-67
2022/10/14 11:26:02;;;;;;;;;;;17.30;99.90;;;;;;5005523;28;19938;-66
2022/10/14 11:28:36;;;;;;;;;;;17.50;99.90;;;;;;5007917;28;19972;-67
2022/10/14 11:31:07;;;;;;;;;;;17.60;99.90;;;;;;4999019;28;19925;-66
2022/10/14 11:33:44;;;;;;;;;;;17.60;99.90;;;;;;5009439;28;19926;-67
2022/10/14 11:36:17;;;;;;;;;;;17.50;99.90;;;;;;5008052;28;19934;-67
2022/10/14 11:38:51;;;;;;;;;;;17.50;99.90;;;;;;5002117;28;19933;-67
2022/10/14 11:41:25;;;;;;;;;;;17.50;99.90;;;;;;5020510;28;20308;-67
2022/10/14 11:43:57;;;;;;;;;;;17.40;99.90;;;;;;5023129;28;19925;-67
2022/10/14 11:46:29;;;;;;;;;;;17.50;99.90;;;;;;4996516;28;19926;-67
2022/10/14 11:48:58;;;;;;;;;;;17.50;99.90;;;;;;5004292;28;19929;-67
2022/10/14 11:51:30;;;;;;;;;;;17.50;99.90;;;;;;4993076;28;19940;-66
2022/10/14 11:54:02;;;;;;;;;;;17.50;99.90;;;;;;5003562;28;20358;-67
2022/10/14 11:56:34;;;;;;;;;;;17.40;99.90;;;;;;5000697;28;19926;-67
2022/10/14 11:59:02;;;;;;;;;;;17.40;99.90;;;;;;4996861;28;20349;-67
2022/10/14 12:01:32;;;;;;;;;;;17.30;99.90;;;;;;5001023;28;19932;-66
2022/10/14 12:04:03;;;;;;;;;;;17.20;99.90;;;;;;4996080;28;19973;-66
2022/10/14 12:06:34;;;;;;;;;;;17.00;99.90;;;;;;4999455;28;20552;-68
2022/10/14 12:09:02;;;;;;;;;;;17.00;99.90;;;;;;5003268;28;19926;-68
2022/10/14 12:11:30;;;;;;;;;;;16.90;99.90;;;;;;5003112;28;19984;-68
2022/10/14 12:14:03;;;;;;;;;;;16.90;99.90;;;;;;4997669;28;19969;-68
2022/10/14 12:16:32;;;;;;;;;;;16.80;99.90;;;;;;4999851;28;20315;-67
2022/10/14 12:18:59;;;;;;;;;;;16.70;99.90;;;;;;5002055;28;19973;-64
2022/10/14 12:21:31;;;;;;;;;;;16.60;99.90;;;;;;5002320;28;20324;-66
2022/10/14 12:23:59;;;;;;;;;;;16.60;99.90;;;;;;5001425;28;19976;-66
2022/10/14 12:26:39;;;;;;;;;;;16.60;99.90;;;;;;5011238;28;20312;-65
2022/10/14 12:29:06;;;;;;;;;;;16.60;99.90;;;;;;5003228;28;19932;-67
2022/10/14 12:31:35;;;;;;;;;;;16.60;99.90;;;;;;5008882;28;19984;-66
2022/10/14 12:34:17;;;;;;;;;;;16.60;99.90;;;;;;5000490;28;19977;-66
2022/10/14 12:36:45;;;;;;;;;;;16.60;99.90;;;;;;5004830;28;19925;-67
2022/10/14 12:39:21;;;;;;;;;;;16.60;99.90;;;;;;5000350;28;19929;-68
2022/10/14 12:41:52;;;;;;;;;;;16.60;99.90;;;;;;5005512;28;19926;-68
2022/10/14 12:44:20;;;;;;;;;;;16.60;99.90;;;;;;5006044;28;19925;-68
2022/10/14 12:46:49;;;;;;;;;;;16.60;99.90;;;;;;4993464;28;20636;-68
2022/10/14 12:49:27;;;;;;;;;;;16.60;99.90;;;;;;5005005;28;20266;-68
2022/10/14 12:51:55;;;;;;;;;;;16.70;99.90;;;;;;4999262;28;20051;-67
2022/10/14 12:54:22;;;;;;;;;;;16.70;99.90;;;;;;5009173;28;20457;-68
2022/10/14 12:56:57;;;;;;;;;;;16.70;99.90;;;;;;5001916;28;19992;-67
2022/10/14 12:59:26;;;;;;;;;;;16.70;99.90;;;;;;4999182;28;19953;-67
2022/10/14 13:01:55;;;;;;;;;;;16.70;99.90;;;;;;5003900;28;19959;-67
2022/10/14 13:04:22;;;;;;;;;;;16.80;99.90;;;;;;5002754;28;19997;-66
2022/10/14 13:07:04;;;;;;;;;;;16.80;99.90;;;;;;4994925;28;19933;-66
2022/10/14 13:09:32;;;;;;;;;;;16.80;99.90;;;;;;4963807;28;19940;-66
2022/10/14 13:12:17;;;;;;;;;;;16.90;99.90;;;;;;4997675;28;19925;-65
2022/10/14 13:14:57;;;;;;;;;;;16.90;99.90;;;;;;4995774;28;19949;-65
2022/10/14 13:17:43;;;;;;;;;;;16.80;99.90;;;;;;4998987;28;19926;-65
2022/10/14 13:20:25;;;;;;;;;;;16.70;99.90;;;;;;5002211;28;20412;-66
2022/10/14 13:22:52;;;;;;;;;;;16.60;99.90;;;;;;5004103;28;19929;-66
2022/10/14 13:25:20;;;;;;;;;;;16.60;99.90;;;;;;4998380;28;19930;-66
2022/10/14 13:27:57;;;;;;;;;;;16.40;99.90;;;;;;4996819;28;19973;-66
2022/10/14 13:30:29;;;;;;;;;;;16.20;99.90;;;;;;4998826;28;19956;-66
2022/10/14 13:32:59;;;;;;;;;;;16.10;99.90;;;;;;5003375;28;20355;-66
2022/10/14 13:35:29;;;;;;;;;;;15.80;99.90;;;;;;5003553;28;20397;-66
2022/10/14 13:37:58;;;;;;;;;;;15.80;99.90;;;;;;5010710;28;20475;-65
2022/10/14 13:40:28;;;;;;;;;;;15.80;99.90;;;;;;5003021;28;20286;-65
2022/10/14 13:42:56;;;;;;;;;;;15.80;99.90;;;;;;5020842;28;19925;-66
2022/10/14 13:45:27;;;;;;;;;;;16.00;99.90;;;;;;4994583;28;19981;-65
2022/10/14 13:47:54;;;;;;;;;;;15.90;99.90;;;;;;4996795;28;19929;-66
2022/10/14 13:50:23;;;;;;;;;;;16.00;99.90;;;;;;4995142;28;19988;-66
2022/10/14 13:52:54;;;;;;;;;;;16.20;99.90;;;;;;4998117;28;20396;-66
2022/10/14 13:55:22;;;;;;;;;;;16.40;99.90;;;;;;5001156;28;20301;-66
2022/10/14 13:58:03;;;;;;;;;;;16.60;99.90;;;;;;5000468;28;20032;-64
2022/10/14 14:00:30;;;;;;;;;;;16.80;99.90;;;;;;5004240;28;19932;-67
2022/10/14 14:02:57;;;;;;;;;;;16.90;99.90;;;;;;4997930;28;19985;-65
2022/10/14 14:05:26;;;;;;;;;;;16.90;99.90;;;;;;4997890;28;19926;-66
2022/10/14 14:07:53;;;;;;;;;;;17.00;99.90;;;;;;4996578;28;19926;-67
2022/10/14 14:10:22;;;;;;;;;;;17.10;99.90;;;;;;5001226;28;20447;-66
2022/10/14 14:12:49;;;;;;;;;;;17.20;99.90;;;;;;4996727;28;19925;-64
2022/10/14 14:15:19;;;;;;;;;;;17.20;99.90;;;;;;4994774;28;20451;-64
2022/10/14 14:17:45;;;;;;;;;;;17.10;99.90;;;;;;5004776;28;20277;-65
2022/10/14 14:20:12;;;;;;;;;;;17.10;99.90;;;;;;4999551;28;20344;-64
2022/10/14 14:22:42;;;;;;;;;;;17.10;99.90;;;;;;5002276;28;19937;-67
2022/10/14 14:25:11;;;;;;;;;;;17.00;99.90;;;;;;4997826;28;19930;-67
2022/10/14 14:27:42;;;;;;;;;;;17.00;99.90;;;;;;5010779;28;19932;-67
2022/10/14 14:30:19;;;;;;;;;;;17.00;99.90;;;;;;5002093;28;19937;-67
2022/10/14 14:32:46;;;;;;;;;;;17.00;99.90;;;;;;5003448;28;19984;-66
2022/10/14 14:35:13;;;;;;;;;;;17.00;99.90;;;;;;4998768;28;19980;-69
2022/10/14 14:37:43;;;;;;;;;;;16.90;99.90;;;;;;5003154;28;19933;-67
2022/10/14 14:40:16;;;;;;;;;;;17.00;99.90;;;;;;5003110;28;19930;-66
2022/10/14 14:42:43;;;;;;;;;;;17.00;99.90;;;;;;5002791;28;19972;-67
2022/10/14 14:45:13;;;;;;;;;;;17.10;99.90;;;;;;5018216;28;19926;-68
2022/10/14 14:47:40;;;;;;;;;;;17.10;99.90;;;;;;5001041;28;19933;-67
2022/10/14 14:50:11;;;;;;;;;;;17.10;99.90;;;;;;5000375;28;19984;-67
2022/10/14 14:52:41;;;;;;;;;;;17.10;99.90;;;;;;5003464;28;19926;-66
2022/10/14 14:55:24;;;;;;;;;;;17.20;99.90;;;;;;4995222;28;19976;-67
2022/10/14 14:57:57;;;;;;;;;;;17.30;99.90;;;;;;5002924;28;19992;-67
2022/10/14 15:00:24;;;;;;;;;;;17.20;99.90;;;;;;4996203;28;19926;-67
2022/10/14 15:02:52;;;;;;;;;;;17.20;99.90;;;;;;5037792;23;19926;-68
2022/10/14 15:05:19;;;;;;;;;;;17.10;99.90;;;;;;5017685;28;19956;-67
2022/10/14 15:07:46;;;;;;;;;;;17.00;99.90;;;;;;5025451;28;20015;-67
2022/10/14 15:10:20;;;;;;;;;;;17.00;99.90;;;;;;5015108;28;19968;-67
2022/10/14 15:12:51;;;;;;;;;;;16.90;99.90;;;;;;5017342;28;19940;-67
2022/10/14 15:15:33;;;;;;;;;;;16.90;99.90;;;;;;5020717;28;19934;-67
2022/10/14 15:18:14;;;;;;;;;;;16.90;99.90;;;;;;5010277;28;19925;-71
2022/10/14 15:20:41;;;;;;;;;;;16.80;99.90;;;;;;5014044;28;19925;-67
2022/10/14 15:23:24;;;;;;;;;;;16.70;99.90;;;;;;5016894;28;19928;-69
2022/10/14 15:25:56;;;;;;;;;;;16.70;99.90;;;;;;5011562;28;20427;-67
2022/10/14 15:28:30;;;;;;;;;;;16.60;99.90;;;;;;5013517;28;20447;-67
2022/10/14 15:30:59;;;;;;;;;;;16.60;99.90;;;;;;5015574;28;19988;-67
2022/10/14 15:33:27;;;;;;;;;;;16.60;99.90;;;;;;5026897;28;19956;-67
2022/10/14 15:35:56;;;;;;;;;;;16.50;99.90;;;;;;5018354;28;19961;-67
2022/10/14 15:38:22;;;;;;;;;;;16.50;99.90;;;;;;5017388;28;20331;-68
2022/10/14 15:40:49;;;;;;;;;;;16.50;99.90;;;;;;5020241;28;20024;-67
2022/10/14 15:43:21;;;;;;;;;;;16.40;99.90;;;;;;5018095;28;19948;-68
2022/10/14 15:47:17;;;;;;;;;;;16.40;99.90;;;;;;5021849;28;20052;-67
2022/10/14 15:48:38;;;;;;;;;;;16.40;99.90;;;;;;5024438;28;19948;-66
2022/10/14 15:51:05;;;;;;;;;;;16.40;99.90;;;;;;5020479;28;20339;-66
2022/10/14 15:53:31;;;;;;;;;;;16.30;99.90;;;;;;5017137;28;19926;-68
2022/10/14 15:55:59;;;;;;;;;;;16.40;99.90;;;;;;5016671;28;19968;-68
2022/10/14 15:58:25;;;;;;;;;;;16.30;99.90;;;;;;5024223;28;19933;-68
2022/10/14 16:00:52;;;;;;;;;;;16.40;99.90;;;;;;5017118;28;19948;-68
2022/10/14 16:03:19;;;;;;;;;;;16.30;99.90;;;;;;5017327;28;19926;-67
2022/10/14 16:05:47;;;;;;;;;;;16.30;99.90;;;;;;5019409;28;19969;-67
2022/10/14 16:08:14;;;;;;;;;;;16.30;99.90;;;;;;5025572;28;19928;-67
2022/10/14 16:10:42;;;;;;;;;;;16.30;99.90;;;;;;5021659;28;19925;-67
2022/10/14 16:13:09;;;;;;;;;;;16.30;99.90;;;;;;5022003;28;19925;-67
2022/10/14 16:15:39;;;;;;;;;;;16.20;99.90;;;;;;5014814;28;19925;-68
2022/10/14 16:18:06;;;;;;;;;;;16.20;99.90;;;;;;5015346;28;20438;-67
2022/10/14 16:20:33;;;;;;;;;;;16.20;99.90;;;;;;5023809;28;19975;-68
2022/10/14 16:23:03;;;;;;;;;;;16.20;99.90;;;;;;5023513;28;19933;-68
2022/10/14 16:25:32;;;;;;;;;;;16.10;99.90;;;;;;5017215;28;19925;-68
2022/10/14 16:27:59;;;;;;;;;;;16.10;99.90;;;;;;5021905;28;19988;-66
2022/10/14 16:30:27;;;;;;;;;;;16.00;99.90;;;;;;5018359;28;20388;-67
2022/10/14 16:32:53;;;;;;;;;;;16.00;99.90;;;;;;5014540;28;20392;-67
2022/10/14 16:35:20;;;;;;;;;;;16.00;99.90;;;;;;5014854;28;19980;-65
2022/10/14 16:37:47;;;;;;;;;;;15.90;99.90;;;;;;5015861;28;19941;-66
2022/10/14 16:40:16;;;;;;;;;;;15.90;99.90;;;;;;5015662;28;20308;-69
2022/10/14 16:42:43;;;;;;;;;;;15.90;99.90;;;;;;5016026;28;19983;-67
2022/10/14 16:45:10;;;;;;;;;;;15.80;99.90;;;;;;5014716;28;19925;-67
2022/10/14 16:47:39;;;;;;;;;;;15.80;99.90;;;;;;5022054;28;19925;-70
2022/10/14 16:50:06;;;;;;;;;;;15.80;99.90;;;;;;5018299;28;19925;-70
2022/10/14 16:53:39;;;;;;;;;;;15.80;99.90;;;;;;5010932;28;20300;-72
2022/10/14 16:55:22;;;;;;;;;;;15.80;99.90;;;;;;5012897;28;20020;-71
2022/10/14 16:57:49;;;;;;;;;;;15.70;99.90;;;;;;5018192;28;19983;-75
2022/10/14 17:00:17;;;;;;;;;;;15.70;99.90;;;;;;5014219;28;20057;-72
2022/10/14 17:02:43;;;;;;;;;;;15.70;99.90;;;;;;5021308;28;19926;-69
2022/10/14 17:05:11;;;;;;;;;;;15.70;99.90;;;;;;5009884;28;20388;-67
2022/10/14 17:07:38;;;;;;;;;;;15.60;99.90;;;;;;5015247;28;19926;-66
2022/10/14 17:10:06;;;;;;;;;;;15.60;99.90;;;;;;5019110;28;20383;-67
2022/10/14 17:12:34;;;;;;;;;;;15.60;99.90;;;;;;5019233;28;19926;-68
2022/10/14 17:15:01;;;;;;;;;;;15.60;99.90;;;;;;5015353;28;19925;-67
2022/10/14 17:17:28;;;;;;;;;;;15.50;99.90;;;;;;5019787;28;19933;-67
2022/10/14 17:19:54;;;;;;;;;;;15.50;99.90;;;;;;5015433;28;19929;-66
2022/10/14 17:22:21;;;;;;;;;;;15.50;99.90;;;;;;5015726;28;19925;-69
2022/10/14 17:24:48;;;;;;;;;;;15.40;99.90;;;;;;5022426;28;19929;-67
2022/10/14 17:27:18;;;;;;;;;;;15.40;99.90;;;;;;5022273;28;19925;-67
2022/10/14 17:29:48;;;;;;;;;;;15.40;99.90;;;;;;5021223;28;20392;-67
2022/10/14 17:32:15;;;;;;;;;;;15.30;99.90;;;;;;5011735;28;19926;-66
2022/10/14 17:34:42;;;;;;;;;;;15.30;99.90;;;;;;5011561;28;20012;-68
2022/10/14 17:37:08;;;;;;;;;;;15.30;99.90;;;;;;5016056;28;20365;-66
2022/10/14 17:39:36;;;;;;;;;;;15.20;99.90;;;;;;5015096;28;19925;-67